createdAt,value
2022-12-15T00:01:34.227Z,100080.78
2022-12-15T00:04:38.334Z,100112.09
2022-12-15T00:07:42.341Z,100122.44
2022-12-15T00:10:47.029Z,100122.38
2022-12-15T00:13:50.931Z,100121.72
2022-12-15T00:16:55.413Z,100116.59
2022-12-15T00:19:59.566Z,100110.41
2022-12-15T00:23:03.547Z,100113.97
2022-12-15T00:26:07.530Z,100118.94
2022-12-15T00:29:11.502Z,100122.00
2022-12-15T00:32:15.256Z,100115.59
2022-12-15T00:35:19.147Z,100134.50
2022-12-15T00:38:32.499Z,100124.97
2022-12-15T00:41:18.928Z,100119.88
2022-12-15T00:44:04.584Z,100122.47
2022-12-15T00:46:56.340Z,100099.66
2022-12-15T00:50:00.527Z,100116.84
2022-12-15T00:53:04.653Z,100118.72
2022-12-15T00:56:08.798Z,100125.31
2022-12-15T00:59:13.566Z,100119.81
2022-12-15T01:02:18.243Z,100126.84
2022-12-15T01:05:22.900Z,100122.44
2022-12-15T01:08:26.998Z,100134.91
2022-12-15T01:11:31.551Z,100131.25
2022-12-15T01:14:35.428Z,100142.75
2022-12-15T01:17:39.629Z,100136.69
2022-12-15T01:20:25.529Z,100136.00
2022-12-15T01:23:10.818Z,100124.31
2022-12-15T01:25:56.154Z,100128.28
2022-12-15T01:28:41.588Z,100132.13
2022-12-15T01:31:26.973Z,100123.75
2022-12-15T01:34:12.444Z,100132.63
2022-12-15T01:36:57.889Z,100124.88
2022-12-15T01:40:02.417Z,100123.16
2022-12-15T01:42:47.797Z,100124.69
2022-12-15T01:45:41.964Z,100138.66
2022-12-15T01:48:30.143Z,100113.16
2022-12-15T01:51:25.928Z,100112.84
2022-12-15T01:54:16.902Z,100109.34
2022-12-15T01:57:06.978Z,100136.69
2022-12-15T02:00:01.979Z,100114.38
2022-12-15T02:02:47.922Z,100122.94
2022-12-15T02:05:35.118Z,100123.00
2022-12-15T02:08:21.015Z,100114.34
2022-12-15T02:11:20.080Z,100147.63
2022-12-15T02:14:10.875Z,100126.13
2022-12-15T02:17:25.538Z,100144.81
2022-12-15T02:20:47.278Z,100149.22
2022-12-15T02:24:04.563Z,100141.72
2022-12-15T02:27:13.486Z,100146.19
2022-12-15T02:30:11.691Z,100140.88
2022-12-15T02:33:11.390Z,100157.78
2022-12-15T02:36:04.339Z,100154.53
2022-12-15T02:38:50.088Z,100145.50
2022-12-15T02:41:39.133Z,100178.44
2022-12-15T02:44:33.541Z,100177.66
2022-12-15T02:47:46.085Z,100171.72
2022-12-15T02:50:50.010Z,100199.75
2022-12-15T02:54:04.506Z,100170.91
2022-12-15T02:57:11.357Z,100171.78
2022-12-15T03:00:02.259Z,100180.19
2022-12-15T03:02:51.770Z,100174.00
2022-12-15T03:05:37.818Z,100163.41
2022-12-15T03:08:23.835Z,100176.94
2022-12-15T03:11:09.221Z,100171.09
2022-12-15T03:13:55.056Z,100156.72
2022-12-15T03:16:40.419Z,100176.16
2022-12-15T03:19:25.893Z,100184.19
2022-12-15T03:22:11.526Z,100167.31
2022-12-15T03:24:57.316Z,100178.34
2022-12-15T03:27:44.215Z,100138.19
2022-12-15T03:30:29.518Z,100155.38
2022-12-15T03:33:14.908Z,100183.44
2022-12-15T03:36:00.732Z,100179.03
2022-12-15T03:38:46.128Z,100191.72
2022-12-15T03:41:31.500Z,100167.63
2022-12-15T03:44:16.835Z,100176.78
2022-12-15T03:47:03.824Z,100164.53
2022-12-15T03:49:49.391Z,100163.16
2022-12-15T03:52:35.998Z,100176.00
2022-12-15T03:55:22.645Z,100173.56
2022-12-15T03:58:08.002Z,100177.81
2022-12-15T04:00:53.596Z,100155.47
2022-12-15T04:03:39.528Z,100173.63
2022-12-15T04:06:24.900Z,100170.25
2022-12-15T04:09:10.223Z,100187.25
2022-12-15T04:11:55.496Z,100174.44
2022-12-15T04:14:42.448Z,100184.06
2022-12-15T04:17:27.938Z,100169.78
2022-12-15T04:20:13.273Z,100188.56
2022-12-15T04:22:59.558Z,100216.66
2022-12-15T04:26:03.605Z,100194.47
2022-12-15T04:29:07.346Z,100187.66
2022-12-15T04:32:12.038Z,100223.56
2022-12-15T04:35:15.824Z,100217.47
2022-12-15T04:38:20.425Z,100194.66
2022-12-15T04:41:24.714Z,100215.19
2022-12-15T04:44:30.184Z,100208.53
2022-12-15T04:47:34.221Z,100206.53
2022-12-15T04:50:38.039Z,100202.25
2022-12-15T04:53:42.198Z,100210.00
2022-12-15T04:56:46.373Z,100214.22
2022-12-15T04:59:53.905Z,100222.91
2022-12-15T05:02:57.831Z,100221.19
2022-12-15T05:06:01.968Z,100213.34
2022-12-15T05:09:05.927Z,100216.78
2022-12-15T05:12:10.084Z,100210.78
2022-12-15T05:15:14.102Z,100227.91
2022-12-15T05:18:17.999Z,100212.28
2022-12-15T05:21:22.062Z,100226.00
2022-12-15T05:24:26.558Z,100221.94
2022-12-15T05:27:30.766Z,100232.94
2022-12-15T05:30:34.874Z,100234.97
2022-12-15T05:33:20.602Z,100230.56
2022-12-15T05:36:06.611Z,100226.09
2022-12-15T05:38:52.627Z,100243.28
2022-12-15T05:41:38.238Z,100230.34
2022-12-15T05:44:24.927Z,100251.69
2022-12-15T05:47:11.728Z,100251.06
2022-12-15T05:49:57.098Z,100244.88
2022-12-15T05:52:46.290Z,100248.25
2022-12-15T05:55:34.761Z,100262.31
2022-12-15T05:58:20.234Z,100249.34
2022-12-15T06:01:09.269Z,100268.84
2022-12-15T06:03:55.105Z,100283.13
2022-12-15T06:06:41.392Z,100283.44
2022-12-15T06:09:26.851Z,100274.69
2022-12-15T06:12:12.258Z,100290.69
2022-12-15T18:28:31.581Z,100576.53
2022-12-15T18:31:20.006Z,100593.66
2022-12-15T18:34:12.730Z,100573.13
2022-12-15T18:36:58.016Z,100585.97
2022-12-15T18:39:43.675Z,100595.38
2022-12-15T18:42:29.291Z,100598.81
2022-12-15T18:45:25.870Z,100608.25
2022-12-15T18:48:19.027Z,100613.38
2022-12-15T18:51:20.197Z,100608.22
2022-12-15T18:54:06.023Z,100620.19
2022-12-15T18:56:51.633Z,100603.88
2022-12-15T18:59:37.157Z,100607.31
2022-12-15T19:02:22.732Z,100629.50
2022-12-15T19:05:27.084Z,100590.16
2022-12-15T19:08:18.237Z,100638.09
2022-12-15T19:11:21.083Z,100615.72
2022-12-15T19:14:33.347Z,100638.81
2022-12-15T19:17:40.033Z,100649.06
2022-12-15T19:20:44.023Z,100645.59
2022-12-15T19:23:30.002Z,100678.25
2022-12-15T19:26:15.587Z,100677.31
2022-12-15T19:29:01.134Z,100673.91
2022-12-15T19:31:46.950Z,100656.81
2022-12-15T19:34:33.410Z,100666.22
2022-12-15T19:37:18.845Z,100688.50
2022-12-15T19:40:06.167Z,100688.47
2022-12-15T19:42:52.860Z,100676.47
2022-12-15T19:45:40.867Z,100686.78
2022-12-15T19:48:26.301Z,100695.19
2022-12-15T19:51:14.626Z,100695.28
2022-12-15T19:54:00.927Z,100654.06
2022-12-15T19:56:47.389Z,100690.88
2022-12-15T19:59:32.951Z,100692.53
2022-12-15T20:02:20.479Z,100671.00
2022-12-15T20:05:06.307Z,100687.31
2022-12-15T20:07:53.249Z,100671.00
2022-12-15T20:10:39.056Z,100691.47
2022-12-15T20:13:26.366Z,100676.97
2022-12-15T20:16:11.740Z,100686.44
2022-12-15T20:18:57.145Z,100679.53
2022-12-15T20:21:42.812Z,100676.19
2022-12-15T20:24:29.934Z,100693.97
2022-12-15T20:27:18.078Z,100687.97
2022-12-15T20:30:04.316Z,100687.06
2022-12-15T20:32:49.605Z,100695.47
2022-12-15T20:35:36.445Z,100662.88
2022-12-15T20:38:32.389Z,100668.97
2022-12-15T20:41:21.606Z,100678.22
2022-12-15T20:44:12.935Z,100676.53
2022-12-15T20:46:58.400Z,100685.97
2022-12-15T20:49:44.839Z,100665.53
2022-12-15T20:52:30.411Z,100658.56
2022-12-15T20:55:16.074Z,100662.81
2022-12-15T20:58:01.445Z,100643.91
2022-12-15T21:00:48.431Z,100645.53
2022-12-15T21:03:37.202Z,100639.53
2022-12-15T21:06:25.089Z,100631.66
2022-12-15T21:09:14.493Z,100667.75
2022-12-15T21:12:03.182Z,100661.81
2022-12-15T21:14:54.145Z,100654.13
2022-12-15T21:17:41.951Z,100682.22
2022-12-15T21:20:27.517Z,100684.78
2022-12-15T21:23:19.584Z,100696.88
2022-12-15T21:26:05.057Z,100696.56
2022-12-15T21:28:54.214Z,100696.41
2022-12-15T21:31:40.138Z,100657.72
2022-12-15T21:34:25.541Z,100685.00
2022-12-15T21:37:26.723Z,100688.31
2022-12-15T21:40:23.963Z,100674.47
2022-12-15T21:43:11.560Z,100701.72
2022-12-15T21:45:57.911Z,100704.19
2022-12-15T21:49:02.945Z,100706.16
2022-12-15T21:52:00.004Z,100706.47
2022-12-15T21:54:45.656Z,100710.75
2022-12-15T21:57:30.952Z,100689.16
2022-12-15T22:00:18.046Z,100731.19
2022-12-15T22:03:03.899Z,100703.78
2022-12-15T22:05:49.554Z,100720.00
2022-12-15T22:08:35.842Z,100703.84
2022-12-15T22:11:30.001Z,100722.69
2022-12-15T22:14:32.967Z,100709.41
2022-12-15T22:17:20.918Z,100723.84
2022-12-15T22:20:14.933Z,100732.44
2022-12-15T22:23:00.210Z,100713.47
2022-12-15T22:25:47.406Z,100734.25
2022-12-15T22:28:33.949Z,100723.25
2022-12-15T22:31:19.639Z,100726.41
2022-12-15T22:34:17.156Z,100740.16
2022-12-15T22:37:02.553Z,100736.66
2022-12-15T22:39:49.438Z,100727.72
2022-12-15T22:42:39.634Z,100744.19
2022-12-15T22:45:25.568Z,100736.56
2022-12-15T22:48:14.488Z,100747.63
2022-12-15T22:51:01.115Z,100716.69
2022-12-15T22:53:46.851Z,100714.00
2022-12-15T22:56:37.751Z,100725.09
2022-12-15T22:59:30.107Z,100726.44
2022-12-15T23:02:15.696Z,100740.13
2022-12-15T23:05:01.499Z,100746.28
2022-12-15T23:07:47.005Z,100746.25
2022-12-15T23:10:51.101Z,100725.78
2022-12-15T23:13:37.410Z,100734.13
2022-12-15T23:16:22.821Z,100739.13
2022-12-15T23:19:08.896Z,100739.00
2022-12-15T23:21:54.694Z,100744.09
2022-12-15T23:24:40.676Z,100738.75
2022-12-15T23:27:26.237Z,100735.34
2022-12-15T23:30:12.723Z,100737.19
2022-12-15T23:32:58.047Z,100752.38
2022-12-15T23:35:43.784Z,100742.03
2022-12-15T23:38:29.526Z,100758.31
2022-12-15T23:41:17.170Z,100758.41
2022-12-15T23:44:02.803Z,100764.31
2022-12-15T23:46:48.582Z,100760.03
2022-12-15T23:49:34.360Z,100764.38
2022-12-15T23:52:19.858Z,100742.97
2022-12-15T23:55:07.930Z,100762.06
2022-12-15T23:57:57.799Z,100758.78
